Beachmont, Massachusetts
Current Conditions -  °F | °C
As of 12:54 AM on Saturday 25 Oct 2014 (Local Time) from KBOS Reporting Station
Clear Clear  
Wind Chill: 42°   Ceiling: Unl
Heat Index: 46°   Visibility: 10mi
Dew Point: 41°   Wind: 7mph
Humidity: 83%   Direction: 300°WNW
Pressure: 29.75"   Gusts: NA
Location:  42.4188°N, 71.0044°W
Report Text: KBOS 250454Z 30006KT 10SM CLR 08/05 A2975 RMK AO2 SLP074 T00780050 401110078
Loading
Personal Weather Stations






























Interactive Weather Map
Tropical Storm Tracking
New forecast layout! Learn more

10-Day Weather Forecast

Advertisements
Track Severe Weather on mobile